Time;durP1;ratioP1;P1;durP2;ratioP2;P2;SDS_P1;SDS_P2;PMS_P1;PMS_P2;Temp;Humidity;BMP_temperature;BMP_pressure;BME280_temperature;BME280_humidity;BME280_pressure;Samples;Min_cycle;Max_cycle;Signal;HPM_P1;HPM_P2
2021/06/25 00:01:35;;;;;;;23.07;21.27;;;;;;;;;;5030589;28;20207;-59
2021/06/25 00:04:00;;;;;;;22.80;20.67;;;;;;;;;;5036233;28;20830;-58
2021/06/25 00:06:26;;;;;;;23.90;21.80;;;;;;;;;;5032929;28;20187;-58
2021/06/25 00:08:51;;;;;;;23.57;21.57;;;;;;;;;;5031672;28;20579;-58
2021/06/25 00:11:16;;;;;;;22.50;20.40;;;;;;;;;;5033198;28;20200;-58
2021/06/25 00:13:42;;;;;;;25.43;23.13;;;;;;;;;;5035394;28;20173;-59
2021/06/25 00:16:07;;;;;;;24.27;22.17;;;;;;;;;;5037861;28;20214;-58
2021/06/25 00:18:32;;;;;;;23.43;21.50;;;;;;;;;;5034526;28;20684;-58
2021/06/25 00:20:57;;;;;;;21.92;20.02;;;;;;;;;;5029726;28;20182;-58
2021/06/25 00:23:22;;;;;;;22.30;20.60;;;;;;;;;;5034626;28;20218;-58
2021/06/25 00:25:47;;;;;;;22.85;20.98;;;;;;;;;;5037248;28;20251;-58
2021/06/25 00:28:13;;;;;;;21.67;20.07;;;;;;;;;;5041935;28;20179;-58
2021/06/25 00:30:38;;;;;;;23.23;21.27;;;;;;;;;;5045479;28;20221;-59
2021/06/25 00:33:03;;;;;;;23.40;21.20;;;;;;;;;;5032669;28;20179;-59
2021/06/25 00:35:29;;;;;;;21.20;19.50;;;;;;;;;;5037579;28;20272;-59
2021/06/25 00:37:54;;;;;;;22.87;20.97;;;;;;;;;;5040165;28;20180;-59
2021/06/25 00:40:19;;;;;;;22.23;20.23;;;;;;;;;;5033245;28;20186;-60
2021/06/25 00:42:44;;;;;;;22.70;20.77;;;;;;;;;;5039493;28;20183;-60
2021/06/25 00:45:10;;;;;;;22.20;20.47;;;;;;;;;;5031467;28;20172;-58
2021/06/25 00:47:35;;;;;;;24.07;22.07;;;;;;;;;;5035453;28;20184;-59
2021/06/25 00:50:01;;;;;;;23.27;21.17;;;;;;;;;;5029066;28;20667;-59
2021/06/25 00:52:26;;;;;;;22.73;20.63;;;;;;;;;;5026758;28;20183;-58
2021/06/25 00:54:51;;;;;;;23.75;21.65;;;;;;;;;;5033187;28;20185;-58
2021/06/25 00:57:16;;;;;;;24.50;22.13;;;;;;;;;;5044043;28;20638;-58
2021/06/25 00:59:41;;;;;;;23.23;21.42;;;;;;;;;;5029181;28;20180;-58
2021/06/25 01:02:07;;;;;;;23.00;21.20;;;;;;;;;;5039619;28;20187;-58
2021/06/25 01:04:33;;;;;;;23.53;21.63;;;;;;;;;;5030284;28;20231;-58
2021/06/25 01:06:58;;;;;;;24.07;22.10;;;;;;;;;;5042203;28;20188;-58
2021/06/25 01:09:24;;;;;;;25.00;22.83;;;;;;;;;;5037877;28;20858;-59
2021/06/25 01:11:49;;;;;;;23.37;21.47;;;;;;;;;;5031463;28;20214;-59
2021/06/25 01:14:15;;;;;;;22.63;20.93;;;;;;;;;;5036332;28;20618;-59
2021/06/25 01:16:40;;;;;;;23.90;22.00;;;;;;;;;;5035354;28;20210;-58
2021/06/25 01:19:11;;;;;;;23.60;21.67;;;;;;;;;;5040029;28;20235;-59
2021/06/25 01:21:36;;;;;;;23.50;21.30;;;;;;;;;;5030793;28;20196;-59
2021/06/25 01:24:01;;;;;;;23.97;21.93;;;;;;;;;;5035226;28;20663;-59
2021/06/25 01:26:27;;;;;;;25.00;22.70;;;;;;;;;;5034549;28;20186;-59
2021/06/25 01:28:52;;;;;;;24.35;21.95;;;;;;;;;;5028427;28;20187;-59
2021/06/25 01:31:17;;;;;;;23.27;21.27;;;;;;;;;;5045675;28;20225;-59
2021/06/25 01:33:42;;;;;;;23.93;21.80;;;;;;;;;;5034788;28;20258;-59
2021/06/25 01:36:08;;;;;;;22.37;20.47;;;;;;;;;;5028356;28;20266;-60
2021/06/25 01:38:33;;;;;;;22.37;20.40;;;;;;;;;;5039330;28;20195;-59
2021/06/25 01:40:59;;;;;;;22.97;21.07;;;;;;;;;;5027057;28;20172;-59
2021/06/25 01:43:26;;;;;;;23.90;21.90;;;;;;;;;;5033929;28;20194;-59
2021/06/25 01:45:51;;;;;;;24.43;22.20;;;;;;;;;;5034625;28;20673;-59
2021/06/25 01:48:16;;;;;;;22.70;20.70;;;;;;;;;;5037391;28;20636;-59
2021/06/25 01:50:43;;;;;;;23.40;21.48;;;;;;;;;;5028482;28;20234;-59
2021/06/25 01:53:10;;;;;;;23.00;20.87;;;;;;;;;;5037567;28;20193;-59
2021/06/25 01:55:40;;;;;;;22.50;20.43;;;;;;;;;;5031790;28;20643;-59
2021/06/25 01:58:06;;;;;;;23.33;21.27;;;;;;;;;;5031377;28;20636;-59
2021/06/25 02:00:31;;;;;;;22.63;20.80;;;;;;;;;;5039106;28;21149;-59
2021/06/25 02:02:56;;;;;;;24.38;22.17;;;;;;;;;;5034171;28;20304;-59
2021/06/25 02:05:21;;;;;;;23.45;21.27;;;;;;;;;;5026595;28;20181;-59
2021/06/25 02:07:46;;;;;;;23.27;20.92;;;;;;;;;;5043841;28;20635;-58
2021/06/25 02:10:12;;;;;;;24.40;21.95;;;;;;;;;;5029574;28;20251;-58
2021/06/25 02:12:37;;;;;;;23.23;21.40;;;;;;;;;;5035013;28;20212;-58
2021/06/25 02:15:06;;;;;;;23.30;21.10;;;;;;;;;;5029146;28;20179;-58
2021/06/25 02:17:32;;;;;;;23.87;21.70;;;;;;;;;;5036093;28;20174;-58
2021/06/25 02:19:57;;;;;;;23.33;21.30;;;;;;;;;;5038436;28;21189;-58
2021/06/25 02:22:22;;;;;;;23.63;21.77;;;;;;;;;;5044902;28;20183;-58
2021/06/25 02:24:47;;;;;;;25.37;23.17;;;;;;;;;;5034011;28;20290;-58
2021/06/25 02:27:12;;;;;;;23.55;21.55;;;;;;;;;;5033352;28;20274;-58
2021/06/25 02:29:37;;;;;;;22.40;20.40;;;;;;;;;;5036424;28;20709;-58
2021/06/25 02:32:03;;;;;;;23.93;21.83;;;;;;;;;;5037792;28;20186;-58
2021/06/25 02:34:28;;;;;;;24.57;22.40;;;;;;;;;;5028371;28;20209;-58
2021/06/25 02:36:53;;;;;;;25.20;23.10;;;;;;;;;;5028136;28;20193;-58
2021/06/25 02:39:19;;;;;;;24.67;22.70;;;;;;;;;;5041627;28;20180;-58
2021/06/25 02:41:44;;;;;;;25.50;23.30;;;;;;;;;;5028785;28;20174;-57
2021/06/25 02:44:10;;;;;;;24.03;21.93;;;;;;;;;;5031658;28;20693;-58
2021/06/25 02:46:35;;;;;;;23.30;21.13;;;;;;;;;;5037335;28;20180;-58
2021/06/25 02:49:00;;;;;;;24.93;22.67;;;;;;;;;;5027444;28;20178;-58
2021/06/25 02:51:26;;;;;;;25.90;23.57;;;;;;;;;;5034267;28;20209;-58
2021/06/25 02:53:52;;;;;;;24.63;22.53;;;;;;;;;;5037228;28;20177;-58
2021/06/25 02:56:17;;;;;;;26.50;24.03;;;;;;;;;;5026692;28;20616;-57
2021/06/25 02:58:42;;;;;;;23.57;21.37;;;;;;;;;;5028445;28;20190;-57
2021/06/25 03:01:07;;;;;;;23.80;21.73;;;;;;;;;;5038860;28;20183;-58
2021/06/25 03:03:33;;;;;;;26.20;24.10;;;;;;;;;;5039654;28;20190;-57
2021/06/25 03:05:58;;;;;;;27.38;25.02;;;;;;;;;;5032195;28;20258;-57
2021/06/25 03:08:23;;;;;;;25.33;23.17;;;;;;;;;;5041058;28;20185;-58
2021/06/25 03:10:49;;;;;;;27.77;25.30;;;;;;;;;;5040142;28;20268;-59
2021/06/25 03:13:15;;;;;;;26.47;24.20;;;;;;;;;;5038692;28;20172;-58
2021/06/25 03:15:41;;;;;;;26.40;24.13;;;;;;;;;;5029447;28;20697;-59
2021/06/25 03:18:06;;;;;;;25.07;22.77;;;;;;;;;;5037820;28;20640;-59
2021/06/25 03:20:31;;;;;;;23.33;21.43;;;;;;;;;;5023676;28;20567;-60
2021/06/25 03:22:56;;;;;;;24.37;22.47;;;;;;;;;;5034182;28;20187;-59
2021/06/25 03:25:21;;;;;;;23.40;21.58;;;;;;;;;;5029868;28;20327;-60
2021/06/25 03:27:46;;;;;;;24.30;22.30;;;;;;;;;;5024973;28;20241;-60
2021/06/25 03:30:12;;;;;;;24.87;22.77;;;;;;;;;;5022881;28;20225;-60
2021/06/25 03:32:37;;;;;;;24.90;22.90;;;;;;;;;;5024327;28;20208;-59
2021/06/25 03:35:03;;;;;;;24.20;22.20;;;;;;;;;;5030592;28;20310;-59
2021/06/25 03:37:28;;;;;;;24.97;22.90;;;;;;;;;;5030839;28;20203;-59
2021/06/25 03:39:54;;;;;;;22.98;21.02;;;;;;;;;;5036663;28;20645;-60
2021/06/25 03:42:19;;;;;;;24.27;22.27;;;;;;;;;;5040376;28;20181;-59
2021/06/25 03:44:44;;;;;;;24.70;22.60;;;;;;;;;;5038981;28;20234;-60
2021/06/25 03:47:09;;;;;;;24.37;22.37;;;;;;;;;;5029612;28;20612;-60
2021/06/25 03:49:34;;;;;;;24.38;22.10;;;;;;;;;;5035653;28;20637;-58
2021/06/25 03:52:00;;;;;;;27.20;24.90;;;;;;;;;;5035540;28;20205;-59
2021/06/25 03:54:25;;;;;;;27.27;24.93;;;;;;;;;;5033369;28;20176;-58
2021/06/25 03:56:50;;;;;;;28.40;25.90;;;;;;;;;;5039577;28;20177;-58
2021/06/25 03:59:15;;;;;;;27.52;24.85;;;;;;;;;;5042260;28;20190;-58
2021/06/25 04:01:42;;;;;;;27.48;25.17;;;;;;;;;;5042449;28;20526;-58
2021/06/25 04:04:07;;;;;;;27.23;24.80;;;;;;;;;;5034361;28;20276;-57
2021/06/25 04:06:32;;;;;;;28.70;26.30;;;;;;;;;;5038455;28;20702;-58
2021/06/25 04:08:57;;;;;;;29.87;27.37;;;;;;;;;;5034048;28;20178;-58
2021/06/25 04:11:23;;;;;;;26.80;24.40;;;;;;;;;;5039859;28;20211;-58
2021/06/25 04:13:48;;;;;;;23.50;21.70;;;;;;;;;;5040252;28;20258;-59
2021/06/25 04:16:13;;;;;;;23.20;21.40;;;;;;;;;;5048097;28;20176;-58
2021/06/25 04:18:38;;;;;;;18.37;16.87;;;;;;;;;;5045232;28;20173;-58
2021/06/25 04:21:04;;;;;;;19.40;17.83;;;;;;;;;;5045223;28;20186;-59
2021/06/25 04:23:29;;;;;;;17.50;16.07;;;;;;;;;;5048294;28;20179;-59
2021/06/25 04:25:54;;;;;;;17.27;15.75;;;;;;;;;;5042014;28;20169;-59
2021/06/25 04:28:20;;;;;;;14.27;13.15;;;;;;;;;;5043366;28;20174;-59
2021/06/25 04:30:46;;;;;;;13.60;12.60;;;;;;;;;;5041740;28;20317;-59
2021/06/25 04:33:14;;;;;;;13.73;12.70;;;;;;;;;;5045446;28;20633;-59
2021/06/25 04:35:41;;;;;;;12.40;11.50;;;;;;;;;;5044909;28;20187;-58
2021/06/25 04:38:06;;;;;;;11.70;10.60;;;;;;;;;;5045355;28;20602;-59
2021/06/25 04:40:32;;;;;;;11.23;10.33;;;;;;;;;;5036123;28;20632;-59
2021/06/25 04:42:57;;;;;;;11.07;10.27;;;;;;;;;;5035984;28;20189;-59
2021/06/25 04:45:22;;;;;;;10.20;9.30;;;;;;;;;;5041836;28;20186;-59
2021/06/25 04:47:47;;;;;;;10.07;9.37;;;;;;;;;;5045653;28;20219;-58
2021/06/25 04:50:13;;;;;;;11.07;10.27;;;;;;;;;;5035480;28;20221;-58
2021/06/25 04:52:41;;;;;;;11.43;10.60;;;;;;;;;;5037487;28;20271;-59
2021/06/25 04:55:07;;;;;;;15.43;14.13;;;;;;;;;;5039855;28;20196;-60
2021/06/25 04:57:32;;;;;;;15.37;14.13;;;;;;;;;;5029661;28;20607;-61
2021/06/25 04:59:58;;;;;;;16.87;15.53;;;;;;;;;;5034445;28;20872;-61
2021/06/25 05:02:23;;;;;;;17.70;16.20;;;;;;;;;;5029460;28;20180;-60
2021/06/25 05:04:48;;;;;;;19.13;17.33;;;;;;;;;;5030279;28;20176;-59
2021/06/25 05:07:13;;;;;;;20.40;18.60;;;;;;;;;;5032160;28;20178;-58
2021/06/25 05:09:38;;;;;;;23.13;21.02;;;;;;;;;;5028314;28;20246;-57
2021/06/25 05:12:04;;;;;;;22.00;20.20;;;;;;;;;;5028303;28;20688;-57
2021/06/25 05:14:29;;;;;;;22.63;20.60;;;;;;;;;;5029530;28;20179;-58
2021/06/25 05:16:54;;;;;;;24.37;21.90;;;;;;;;;;5038001;28;20188;-58
2021/06/25 05:19:19;;;;;;;28.07;25.37;;;;;;;;;;5024028;28;20180;-58
2021/06/25 05:21:44;;;;;;;23.00;21.10;;;;;;;;;;5036044;28;20395;-59
2021/06/25 05:24:09;;;;;;;24.47;22.17;;;;;;;;;;5030946;28;20175;-59
2021/06/25 05:26:35;;;;;;;24.27;22.07;;;;;;;;;;5023754;28;20246;-59
2021/06/25 05:29:00;;;;;;;23.70;21.60;;;;;;;;;;5033095;28;20227;-58
2021/06/25 05:31:25;;;;;;;22.73;20.80;;;;;;;;;;5030923;28;20318;-57
2021/06/25 05:33:51;;;;;;;21.80;19.97;;;;;;;;;;5034742;28;20401;-58
2021/06/25 05:36:16;;;;;;;20.40;18.70;;;;;;;;;;5031587;28;20260;-58
2021/06/25 05:38:41;;;;;;;19.13;17.53;;;;;;;;;;5025939;28;20166;-59
2021/06/25 05:41:06;;;;;;;19.63;17.70;;;;;;;;;;5024483;28;20215;-59
2021/06/25 05:43:31;;;;;;;20.97;19.17;;;;;;;;;;5027163;28;20187;-60
2021/06/25 05:45:57;;;;;;;20.27;18.57;;;;;;;;;;5032419;28;20599;-60
2021/06/25 05:48:22;;;;;;;19.50;17.70;;;;;;;;;;5034095;28;20758;-60
2021/06/25 05:50:48;;;;;;;18.60;17.03;;;;;;;;;;5044934;28;20765;-59
2021/06/25 05:53:14;;;;;;;16.30;14.90;;;;;;;;;;5041365;28;20719;-60
2021/06/25 05:55:42;;;;;;;16.63;15.23;;;;;;;;;;5026765;28;20685;-60
2021/06/25 05:58:07;;;;;;;16.03;14.80;;;;;;;;;;5040048;28;20604;-59
2021/06/25 06:00:32;;;;;;;17.30;15.83;;;;;;;;;;5029428;28;20646;-60
2021/06/25 06:02:57;;;;;;;16.75;15.43;;;;;;;;;;5027279;28;20184;-60
2021/06/25 06:05:23;;;;;;;16.63;15.23;;;;;;;;;;5031928;28;20180;-60
2021/06/25 06:07:48;;;;;;;16.80;15.40;;;;;;;;;;5027662;28;20188;-60
2021/06/25 06:10:17;;;;;;;18.50;16.75;;;;;;;;;;5025218;28;20208;-61
2021/06/25 06:12:43;;;;;;;17.97;16.37;;;;;;;;;;5024168;28;20190;-61
2021/06/25 06:15:08;;;;;;;17.53;16.03;;;;;;;;;;5034400;28;20596;-60
2021/06/25 06:17:38;;;;;;;18.70;17.10;;;;;;;;;;5026716;28;20755;-60
2021/06/25 06:20:03;;;;;;;20.63;18.83;;;;;;;;;;5028724;28;20180;-59
2021/06/25 06:35:50;;;;;;;19.60;18.00;;;;;;;;;;5028778;28;20595;-59
2021/06/25 06:38:16;;;;;;;20.40;18.80;;;;;;;;;;5039021;28;20187;-60
2021/06/25 06:40:41;;;;;;;21.53;19.73;;;;;;;;;;5045932;28;20176;-59
2021/06/25 06:43:06;;;;;;;20.65;19.00;;;;;;;;;;5056110;28;20180;-60
2021/06/25 06:45:31;;;;;;;19.60;18.00;;;;;;;;;;5064889;28;20266;-60
2021/06/25 06:47:56;;;;;;;19.73;17.93;;;;;;;;;;5060373;28;20212;-60
2021/06/25 06:50:22;;;;;;;20.08;18.48;;;;;;;;;;5043126;28;20658;-60
2021/06/25 06:52:49;;;;;;;21.30;19.50;;;;;;;;;;5046531;28;20284;-60
2021/06/25 06:55:19;;;;;;;21.57;19.63;;;;;;;;;;5041301;28;20169;-60
2021/06/25 06:57:44;;;;;;;21.53;19.53;;;;;;;;;;5033038;28;20614;-59
2021/06/25 07:00:09;;;;;;;20.30;18.70;;;;;;;;;;5033931;28;20963;-60
2021/06/25 07:02:35;;;;;;;19.80;18.20;;;;;;;;;;5042932;28;20174;-61
2021/06/25 07:05:01;;;;;;;20.83;18.83;;;;;;;;;;5040058;28;20188;-60
2021/06/25 07:07:26;;;;;;;20.25;18.52;;;;;;;;;;5027623;28;21170;-60
2021/06/25 07:09:51;;;;;;;22.50;20.52;;;;;;;;;;5030668;28;20736;-61
2021/06/25 07:12:16;;;;;;;21.88;20.08;;;;;;;;;;5038354;28;20178;-61
2021/06/25 07:14:41;;;;;;;21.15;19.25;;;;;;;;;;5043190;28;20161;-61
2021/06/25 07:17:06;;;;;;;20.30;18.70;;;;;;;;;;5035066;28;20866;-61
2021/06/25 07:19:31;;;;;;;22.13;20.15;;;;;;;;;;5030409;28;20175;-62
2021/06/25 07:21:56;;;;;;;20.88;19.08;;;;;;;;;;5031500;28;20173;-61
2021/06/25 07:24:22;;;;;;;20.83;19.23;;;;;;;;;;5031227;28;20605;-62
2021/06/25 07:26:47;;;;;;;21.70;20.00;;;;;;;;;;5036295;28;20161;-62
2021/06/25 07:29:14;;;;;;;21.00;19.10;;;;;;;;;;5033443;28;20167;-62
2021/06/25 07:31:39;;;;;;;23.43;21.40;;;;;;;;;;5029914;28;20230;-62
2021/06/25 07:34:04;;;;;;;21.03;19.17;;;;;;;;;;5029788;28;20598;-62
2021/06/25 07:36:29;;;;;;;23.03;20.93;;;;;;;;;;5030282;28;20188;-62
2021/06/25 07:38:54;;;;;;;23.50;21.60;;;;;;;;;;5035680;28;20227;-61
2021/06/25 07:41:19;;;;;;;23.83;21.85;;;;;;;;;;5049206;28;20206;-61
2021/06/25 07:43:45;;;;;;;23.80;21.80;;;;;;;;;;5043865;28;20199;-61
2021/06/25 07:46:10;;;;;;;22.47;20.67;;;;;;;;;;5029709;28;20271;-60
2021/06/25 07:48:35;;;;;;;23.48;21.50;;;;;;;;;;5045798;28;20180;-60
2021/06/25 07:51:00;;;;;;;22.90;21.00;;;;;;;;;;5038479;28;20239;-60
2021/06/25 07:53:25;;;;;;;27.10;24.90;;;;;;;;;;5033462;28;20543;-60
2021/06/25 07:55:50;;;;;;;26.77;24.50;;;;;;;;;;5030721;28;20168;-60
2021/06/25 07:58:16;;;;;;;27.47;25.00;;;;;;;;;;5032664;28;20204;-61
2021/06/25 08:00:41;;;;;;;27.97;25.47;;;;;;;;;;5038025;28;20274;-61
2021/06/25 08:03:07;;;;;;;27.63;25.23;;;;;;;;;;5035917;28;20286;-61
2021/06/25 08:05:32;;;;;;;29.43;26.80;;;;;;;;;;5036381;28;20585;-61
2021/06/25 08:07:57;;;;;;;29.17;26.67;;;;;;;;;;5030870;28;20206;-61
2021/06/25 08:10:23;;;;;;;28.65;26.05;;;;;;;;;;5036273;28;20258;-61
2021/06/25 08:12:48;;;;;;;30.73;28.00;;;;;;;;;;5031700;28;20548;-61
2021/06/25 08:15:13;;;;;;;30.40;27.70;;;;;;;;;;5042003;28;20173;-62
2021/06/25 08:17:38;;;;;;;29.13;26.60;;;;;;;;;;5030597;28;20286;-62
2021/06/25 08:20:04;;;;;;;29.40;26.87;;;;;;;;;;5035834;28;20176;-62
2021/06/25 08:22:30;;;;;;;29.70;26.90;;;;;;;;;;5030914;28;20225;-62
2021/06/25 08:24:55;;;;;;;29.50;26.73;;;;;;;;;;5032169;28;20594;-63
2021/06/25 08:27:20;;;;;;;30.10;27.40;;;;;;;;;;5043229;28;20202;-62
2021/06/25 08:29:45;;;;;;;27.83;25.33;;;;;;;;;;5047330;28;20211;-63
2021/06/25 08:32:10;;;;;;;30.43;27.83;;;;;;;;;;5041956;28;20737;-63
2021/06/25 08:34:36;;;;;;;29.42;26.83;;;;;;;;;;5039211;28;20456;-62
2021/06/25 08:37:01;;;;;;;31.13;28.43;;;;;;;;;;5039860;28;20178;-62
2021/06/25 08:39:26;;;;;;;30.27;27.67;;;;;;;;;;5044281;28;20189;-63
2021/06/25 08:41:52;;;;;;;30.97;28.40;;;;;;;;;;5030673;28;20181;-62
2021/06/25 08:44:17;;;;;;;30.90;28.30;;;;;;;;;;5034888;28;20189;-63
2021/06/25 08:46:47;;;;;;;31.60;28.65;;;;;;;;;;5033900;28;20198;-63
2021/06/25 08:49:15;;;;;;;31.70;28.80;;;;;;;;;;5028688;28;20262;-63
2021/06/25 08:51:40;;;;;;;29.30;26.60;;;;;;;;;;5041592;28;20654;-62
2021/06/25 08:54:05;;;;;;;28.03;25.73;;;;;;;;;;5028884;28;20736;-63
2021/06/25 08:56:32;;;;;;;30.30;27.60;;;;;;;;;;5038662;28;20180;-62
2021/06/25 08:58:57;;;;;;;29.57;27.17;;;;;;;;;;5047493;28;20708;-62
2021/06/25 09:01:23;;;;;;;30.07;27.60;;;;;;;;;;5045555;28;20755;-62
2021/06/25 09:03:53;;;;;;;28.93;26.33;;;;;;;;;;5025379;28;20174;-64
2021/06/25 09:06:18;;;;;;;26.83;24.63;;;;;;;;;;5031065;28;20606;-64
2021/06/25 09:08:43;;;;;;;27.13;24.93;;;;;;;;;;5032894;28;20597;-61
2021/06/25 09:11:22;;;;;;;28.98;26.50;;;;;;;;;;5027101;28;20203;-61
2021/06/25 09:13:54;;;;;;;28.10;25.80;;;;;;;;;;5027561;28;20188;-61
2021/06/25 09:16:26;;;;;;;26.70;24.50;;;;;;;;;;5033582;28;20594;-61
2021/06/25 09:19:02;;;;;;;26.23;24.03;;;;;;;;;;5031545;28;20624;-62
2021/06/25 09:21:30;;;;;;;20.40;18.70;;;;;;;;;;5026744;28;20587;-60
2021/06/25 09:23:55;;;;;;;20.30;18.70;;;;;;;;;;5027290;28;21190;-60
2021/06/25 09:26:21;;;;;;;21.63;20.03;;;;;;;;;;5026708;28;20645;-60
2021/06/25 09:28:47;;;;;;;20.10;18.50;;;;;;;;;;5032181;28;20241;-60
2021/06/25 09:31:16;;;;;;;19.13;17.60;;;;;;;;;;5044122;28;20661;-61
2021/06/25 09:33:52;;;;;;;17.47;16.07;;;;;;;;;;5030948;28;20663;-60
2021/06/25 09:36:24;;;;;;;18.77;17.30;;;;;;;;;;5031035;28;21052;-60
2021/06/25 09:38:56;;;;;;;18.53;17.03;;;;;;;;;;5047271;28;20597;-60
2021/06/25 09:41:21;;;;;;;18.67;17.27;;;;;;;;;;5035187;28;20602;-61
2021/06/25 09:43:54;;;;;;;17.37;16.07;;;;;;;;;;5028127;28;20652;-61
2021/06/25 09:46:35;;;;;;;15.80;14.60;;;;;;;;;;5036171;28;20230;-60
2021/06/25 09:49:02;;;;;;;13.63;12.60;;;;;;;;;;5027905;28;20591;-60
2021/06/25 09:51:28;;;;;;;12.73;11.83;;;;;;;;;;5027391;28;20676;-60
2021/06/25 09:54:11;;;;;;;12.47;11.60;;;;;;;;;;5036153;28;20781;-61
2021/06/25 09:56:51;;;;;;;13.60;12.60;;;;;;;;;;5045890;28;20176;-60
2021/06/25 10:01:58;;;;;;;11.20;10.40;;;;;;;;;;5047391;28;20571;-61
2021/06/25 10:04:34;;;;;;;11.13;10.33;;;;;;;;;;5043966;28;20608;-60
2021/06/25 10:07:28;;;;;;;9.87;9.17;;;;;;;;;;5031319;28;20622;-61
2021/06/25 10:09:55;;;;;;;10.10;9.40;;;;;;;;;;5038834;28;20658;-60
2021/06/25 10:12:22;;;;;;;10.27;9.57;;;;;;;;;;5043476;28;20595;-61
2021/06/25 10:14:48;;;;;;;10.80;10.10;;;;;;;;;;5027104;28;20674;-61
2021/06/25 10:17:14;;;;;;;11.10;10.30;;;;;;;;;;5027236;28;20609;-60
2021/06/25 10:19:49;;;;;;;11.00;10.20;;;;;;;;;;5026983;28;21126;-61
2021/06/25 10:22:16;;;;;;;10.73;10.00;;;;;;;;;;5027241;28;20180;-60
2021/06/25 10:24:44;;;;;;;11.17;10.13;;;;;;;;;;5031392;28;21005;-60
2021/06/25 10:27:10;;;;;;;10.80;10.00;;;;;;;;;;5045119;28;20624;-61
2021/06/25 10:29:35;;;;;;;10.20;9.50;;;;;;;;;;5029733;28;21013;-60
2021/06/25 10:32:03;;;;;;;10.30;9.50;;;;;;;;;;5030072;28;21218;-60
2021/06/25 10:34:32;;;;;;;9.77;9.07;;;;;;;;;;5037900;28;20182;-61
2021/06/25 10:36:57;;;;;;;10.40;9.50;;;;;;;;;;5026773;28;20637;-60
2021/06/25 10:39:22;;;;;;;8.43;7.90;;;;;;;;;;5026937;28;20661;-61
2021/06/25 10:41:50;;;;;;;8.27;7.77;;;;;;;;;;5030795;28;20274;-60
2021/06/25 10:44:40;;;;;;;8.60;8.00;;;;;;;;;;5026406;28;20178;-60
2021/06/25 10:47:25;;;;;;;9.43;8.73;;;;;;;;;;5028512;28;20638;-62
2021/06/25 10:50:00;;;;;;;10.17;9.40;;;;;;;;;;5037098;28;20625;-59
2021/06/25 10:52:26;;;;;;;10.53;9.80;;;;;;;;;;5033858;28;20634;-60
2021/06/25 10:55:07;;;;;;;8.80;8.20;;;;;;;;;;5030111;28;20603;-60
2021/06/25 10:57:34;;;;;;;9.40;8.77;;;;;;;;;;5037602;28;20594;-59
2021/06/25 10:59:59;;;;;;;9.10;8.40;;;;;;;;;;5037791;28;21059;-60
2021/06/25 11:02:40;;;;;;;8.57;7.97;;;;;;;;;;5030158;28;20619;-59
2021/06/25 11:05:25;;;;;;;9.50;8.80;;;;;;;;;;5030194;28;20236;-58
2021/06/25 11:07:51;;;;;;;10.00;9.30;;;;;;;;;;5030265;28;20661;-60
2021/06/25 11:10:23;;;;;;;10.50;9.60;;;;;;;;;;5034641;28;21283;-60
2021/06/25 11:12:50;;;;;;;11.37;10.53;;;;;;;;;;5050414;28;20660;-59
2021/06/25 11:15:16;;;;;;;11.87;10.97;;;;;;;;;;5042959;28;20579;-59
2021/06/25 11:18:01;;;;;;;13.07;12.17;;;;;;;;;;5042653;28;20658;-60
2021/06/25 11:20:36;;;;;;;12.47;11.50;;;;;;;;;;5031593;28;20607;-59
2021/06/25 11:23:12;;;;;;;13.50;12.47;;;;;;;;;;5049396;28;21147;-60
2021/06/25 11:25:47;;;;;;;15.10;13.90;;;;;;;;;;5051209;28;20698;-61
2021/06/25 11:28:26;;;;;;;14.43;13.33;;;;;;;;;;5035106;28;20626;-59
2021/06/25 11:30:54;;;;;;;12.70;11.70;;;;;;;;;;5029590;28;20709;-59
2021/06/25 11:33:27;;;;;;;12.23;11.30;;;;;;;;;;5030047;28;20601;-61
2021/06/25 11:35:52;;;;;;;12.93;11.83;;;;;;;;;;5029961;28;20610;-59
2021/06/25 11:38:17;;;;;;;13.30;12.23;;;;;;;;;;5038977;28;20992;-58
2021/06/25 11:40:46;;;;;;;13.43;12.37;;;;;;;;;;5034521;28;20269;-57
2021/06/25 11:43:12;;;;;;;11.00;10.20;;;;;;;;;;5029430;28;20646;-59
2021/06/25 11:45:38;;;;;;;9.67;8.97;;;;;;;;;;5033012;28;20621;-59
2021/06/25 11:48:03;;;;;;;10.47;9.77;;;;;;;;;;5037313;28;20619;-60
2021/06/25 11:50:28;;;;;;;11.13;10.33;;;;;;;;;;5032235;28;20568;-59
2021/06/25 11:52:53;;;;;;;12.60;11.63;;;;;;;;;;5030344;28;20619;-60
2021/06/25 11:55:22;;;;;;;11.40;10.60;;;;;;;;;;5048615;28;20172;-60
2021/06/25 11:57:47;;;;;;;12.03;11.10;;;;;;;;;;5045275;28;20175;-60
2021/06/25 12:00:12;;;;;;;12.30;11.30;;;;;;;;;;5046058;28;20654;-60
2021/06/25 12:02:54;;;;;;;11.73;10.87;;;;;;;;;;5036507;28;20181;-59
2021/06/25 12:05:29;;;;;;;10.40;9.70;;;;;;;;;;5040630;28;20179;-59
2021/06/25 12:08:10;;;;;;;10.57;9.77;;;;;;;;;;5040240;28;20599;-59
2021/06/25 12:10:36;;;;;;;11.37;10.57;;;;;;;;;;5028395;28;21238;-59
2021/06/25 12:13:01;;;;;;;11.10;10.20;;;;;;;;;;5034554;28;20602;-60
2021/06/25 12:15:27;;;;;;;10.83;9.97;;;;;;;;;;5028489;28;20191;-59
2021/06/25 12:17:53;;;;;;;11.77;10.87;;;;;;;;;;5037388;28;20233;-59
2021/06/25 12:20:18;;;;;;;11.53;10.73;;;;;;;;;;5028559;28;20193;-59
2021/06/25 12:22:57;;;;;;;11.87;11.00;;;;;;;;;;5026833;28;20713;-60
2021/06/25 12:25:34;;;;;;;11.73;10.90;;;;;;;;;;5033289;28;20880;-60
2021/06/25 12:28:06;;;;;;;11.17;10.37;;;;;;;;;;5035405;28;20631;-60
2021/06/25 12:30:31;;;;;;;11.63;10.83;;;;;;;;;;5026115;28;20665;-59
2021/06/25 12:33:01;;;;;;;11.63;10.80;;;;;;;;;;5025975;28;20611;-59
2021/06/25 12:35:30;;;;;;;11.27;10.30;;;;;;;;;;5025543;28;20179;-61
2021/06/25 12:37:55;;;;;;;12.33;11.40;;;;;;;;;;5034336;28;20741;-60
2021/06/25 12:40:40;;;;;;;12.43;11.23;;;;;;;;;;5025897;28;20613;-60
2021/06/25 12:43:07;;;;;;;12.30;11.40;;;;;;;;;;5025112;28;20297;-60
2021/06/25 12:45:48;;;;;;;11.67;10.87;;;;;;;;;;5025358;28;20629;-60
2021/06/25 12:48:15;;;;;;;12.20;11.40;;;;;;;;;;5025704;28;20626;-60
2021/06/25 12:50:43;;;;;;;12.10;11.20;;;;;;;;;;5041703;28;20650;-60
2021/06/25 12:53:11;;;;;;;11.13;10.30;;;;;;;;;;5025693;28;20862;-60
2021/06/25 12:55:36;;;;;;;11.13;10.40;;;;;;;;;;5036897;28;20680;-61
2021/06/25 12:58:01;;;;;;;11.73;10.93;;;;;;;;;;5037921;28;20645;-60
2021/06/25 13:00:29;;;;;;;10.17;9.50;;;;;;;;;;5032546;28;20194;-60
2021/06/25 13:02:54;;;;;;;10.73;9.93;;;;;;;;;;5031966;28;20580;-60
2021/06/25 13:05:30;;;;;;;10.90;10.10;;;;;;;;;;5044614;28;20620;-60
2021/06/25 13:07:58;;;;;;;10.90;10.10;;;;;;;;;;5034674;28;20244;-60
2021/06/25 13:10:25;;;;;;;10.20;9.50;;;;;;;;;;5039806;28;20661;-61
2021/06/25 13:12:50;;;;;;;10.63;9.93;;;;;;;;;;5025598;28;20693;-60
2021/06/25 13:15:15;;;;;;;11.27;10.47;;;;;;;;;;5025233;28;20697;-60
2021/06/25 13:17:41;;;;;;;12.80;11.85;;;;;;;;;;5025375;28;20191;-60
2021/06/25 13:20:24;;;;;;;11.73;10.63;;;;;;;;;;5040673;28;20612;-60
2021/06/25 13:22:56;;;;;;;10.90;10.10;;;;;;;;;;5024624;28;20180;-61
2021/06/25 13:25:28;;;;;;;10.00;9.30;;;;;;;;;;5024576;28;20732;-59
2021/06/25 13:27:54;;;;;;;11.67;10.77;;;;;;;;;;5024481;28;20605;-59
2021/06/25 13:30:25;;;;;;;10.90;9.90;;;;;;;;;;5034339;28;20707;-59
2021/06/25 13:32:58;;;;;;;11.17;10.27;;;;;;;;;;5024795;28;20634;-59
2021/06/25 13:35:44;;;;;;;11.10;10.30;;;;;;;;;;5033029;28;20973;-60
2021/06/25 13:38:22;;;;;;;10.33;9.57;;;;;;;;;;5041980;28;20597;-60
2021/06/25 13:40:52;;;;;;;10.00;9.20;;;;;;;;;;5040905;28;20684;-60
2021/06/25 13:43:18;;;;;;;10.27;9.47;;;;;;;;;;5029890;28;20605;-59
2021/06/25 13:45:44;;;;;;;10.27;9.47;;;;;;;;;;5029640;28;20601;-62
2021/06/25 13:48:14;;;;;;;10.40;9.60;;;;;;;;;;5035941;28;20626;-60
2021/06/25 13:50:43;;;;;;;9.60;8.90;;;;;;;;;;5024503;28;20924;-61
2021/06/25 13:53:08;;;;;;;11.10;10.30;;;;;;;;;;5024417;28;20577;-60
2021/06/25 13:55:34;;;;;;;9.57;8.88;;;;;;;;;;5039926;28;20601;-61
2021/06/25 13:58:05;;;;;;;8.45;7.85;;;;;;;;;;5036716;28;20171;-59
2021/06/25 14:00:35;;;;;;;8.70;8.10;;;;;;;;;;5028360;28;20725;-59
2021/06/25 14:03:01;;;;;;;8.60;8.00;;;;;;;;;;5026476;28;20671;-59
2021/06/25 14:05:26;;;;;;;9.27;8.57;;;;;;;;;;5024923;28;20606;-59
2021/06/25 14:07:58;;;;;;;9.37;8.67;;;;;;;;;;5029726;28;20602;-60
2021/06/25 14:10:24;;;;;;;9.93;9.13;;;;;;;;;;5030275;28;20207;-59
2021/06/25 14:12:49;;;;;;;8.77;8.17;;;;;;;;;;5043648;28;20958;-59
2021/06/25 14:15:15;;;;;;;8.83;8.23;;;;;;;;;;5044013;28;20183;-59
2021/06/25 14:17:40;;;;;;;10.07;9.27;;;;;;;;;;5037755;28;20177;-59
2021/06/25 14:20:06;;;;;;;9.03;8.37;;;;;;;;;;5037321;28;20266;-59
2021/06/25 14:22:31;;;;;;;9.17;8.57;;;;;;;;;;5041731;28;20234;-59
2021/06/25 14:24:57;;;;;;;8.35;7.75;;;;;;;;;;5046264;28;20999;-60
2021/06/25 14:27:22;;;;;;;7.53;6.93;;;;;;;;;;5034641;28;20210;-58
2021/06/25 14:29:47;;;;;;;7.40;6.90;;;;;;;;;;5031186;28;20238;-59
2021/06/25 14:32:13;;;;;;;7.70;7.10;;;;;;;;;;5041975;28;20228;-59
2021/06/25 14:34:38;;;;;;;6.93;6.43;;;;;;;;;;5026505;28;21296;-58
2021/06/25 14:37:04;;;;;;;6.40;6.00;;;;;;;;;;5035481;28;20647;-59